createdAt,value
2019-01-12T00:00:27.924Z,25.80
2019-01-12T00:02:56.349Z,23.30
2019-01-12T00:05:25.400Z,24.10
2019-01-12T00:07:53.836Z,20.20
2019-01-12T00:10:22.240Z,17.93
2019-01-12T00:12:50.694Z,16.97
2019-01-12T00:15:19.131Z,16.60
2019-01-12T00:17:47.544Z,16.23
2019-01-12T00:20:16.095Z,15.27
2019-01-12T00:22:44.556Z,15.43
2019-01-12T00:25:14.325Z,12.97
2019-01-12T00:27:42.787Z,14.70
2019-01-12T00:30:13.526Z,11.80
2019-01-12T00:32:41.975Z,16.17
2019-01-12T00:35:10.486Z,13.00
2019-01-12T00:37:39.036Z,12.30
2019-01-12T00:40:08.463Z,10.87
2019-01-12T00:42:36.919Z,12.53
2019-01-12T00:45:09.107Z,11.50
2019-01-12T00:47:37.524Z,13.13
2019-01-12T00:50:11.519Z,13.10
2019-01-12T00:52:39.996Z,12.50
2019-01-12T00:55:08.639Z,13.80
2019-01-12T00:57:37.056Z,13.83
2019-01-12T01:00:08.582Z,13.93
2019-01-12T01:02:37.017Z,12.70
2019-01-12T01:05:07.310Z,15.90
2019-01-12T01:07:35.797Z,13.63
2019-01-12T01:10:07.221Z,16.17
2019-01-12T01:12:35.655Z,15.23
2019-01-12T01:15:06.229Z,14.30
2019-01-12T01:17:34.643Z,15.43
2019-01-12T01:20:03.149Z,15.30
2019-01-12T01:22:31.603Z,16.43
2019-01-12T01:25:00.051Z,14.00
2019-01-12T01:27:28.540Z,15.30
2019-01-12T01:29:56.988Z,16.13
2019-01-12T01:32:25.649Z,16.57
2019-01-12T01:34:54.073Z,15.87
2019-01-12T01:37:22.567Z,14.67
2019-01-12T01:39:51.013Z,14.30
2019-01-12T01:42:19.425Z,15.33
2019-01-12T01:44:47.866Z,15.03
2019-01-12T01:47:16.283Z,15.80
2019-01-12T01:49:44.723Z,14.47
2019-01-12T01:52:13.285Z,16.03
2019-01-12T01:54:41.723Z,14.80
2019-01-12T01:57:10.146Z,14.23
2019-01-12T01:59:38.598Z,14.63
2019-01-12T02:02:07.286Z,14.03
2019-01-12T02:04:35.792Z,13.57
2019-01-12T02:07:04.309Z,14.80
2019-01-12T02:09:32.732Z,13.40
2019-01-12T02:12:01.171Z,13.60
2019-01-12T02:14:29.584Z,15.80
2019-01-12T02:16:58.091Z,13.37
2019-01-12T02:19:29.599Z,15.33
2019-01-12T02:21:58.039Z,15.10
2019-01-12T02:24:26.459Z,15.70
2019-01-12T02:26:55.723Z,15.23
2019-01-12T02:29:24.285Z,16.13
2019-01-12T02:31:52.692Z,16.73
2019-01-12T02:34:21.136Z,14.80
2019-01-12T02:36:49.568Z,16.33
2019-01-12T02:39:18.113Z,17.40
2019-01-12T02:41:46.521Z,17.93
2019-01-12T02:44:14.946Z,17.90
2019-01-12T02:46:43.361Z,17.63
2019-01-12T02:49:11.807Z,18.63
2019-01-12T02:51:40.253Z,18.10
2019-01-12T02:54:08.677Z,18.50
2019-01-12T02:56:37.885Z,18.47
2019-01-12T02:59:06.386Z,18.47
2019-01-12T03:01:34.858Z,19.70
2019-01-12T03:04:03.362Z,18.23
2019-01-12T03:06:31.793Z,18.77
2019-01-12T03:09:00.218Z,19.87
2019-01-12T03:11:28.696Z,17.40
2019-01-12T03:13:57.157Z,18.57
2019-01-12T03:16:25.792Z,18.50
2019-01-12T03:18:54.239Z,18.40
2019-01-12T03:21:22.648Z,19.70
2019-01-12T03:23:51.125Z,18.67
2019-01-12T03:26:19.559Z,17.77
2019-01-12T03:28:48.000Z,18.30
2019-01-12T03:31:16.490Z,18.80
2019-01-12T03:33:44.903Z,16.97
2019-01-12T03:36:13.367Z,16.83
2019-01-12T03:38:41.795Z,18.50
2019-01-12T03:41:10.233Z,18.93
2019-01-12T03:43:38.719Z,17.50
2019-01-12T03:46:07.157Z,19.73
2019-01-12T03:48:35.592Z,18.40
2019-01-12T03:51:04.499Z,18.03
2019-01-12T03:53:32.934Z,17.87
2019-01-12T03:56:01.440Z,21.73
2019-01-12T03:58:29.938Z,21.30
2019-01-12T04:00:58.361Z,21.33
2019-01-12T04:03:26.814Z,19.87
2019-01-12T04:05:56.228Z,19.70
2019-01-12T04:08:24.663Z,21.87
2019-01-12T04:10:53.101Z,22.33
2019-01-12T04:13:21.606Z,21.67
2019-01-12T04:15:50.101Z,22.30
2019-01-12T04:18:18.540Z,20.80
2019-01-12T04:20:46.993Z,21.70
2019-01-12T04:23:15.433Z,19.67
2019-01-12T04:25:43.875Z,22.37
2019-01-12T04:28:12.371Z,22.57
2019-01-12T04:30:40.771Z,19.57
2019-01-12T04:33:09.223Z,20.13
2019-01-12T04:35:37.636Z,20.10
2019-01-12T04:38:06.127Z,19.73
2019-01-12T04:40:34.584Z,19.03
2019-01-12T04:43:03.027Z,18.70
2019-01-12T04:45:31.474Z,19.17
2019-01-12T04:47:59.907Z,19.63
2019-01-12T04:50:28.349Z,18.13
2019-01-12T04:52:56.765Z,18.57
2019-01-12T04:55:25.200Z,16.13
2019-01-12T04:57:53.639Z,18.30
2019-01-12T05:00:22.119Z,18.63
2019-01-12T05:02:50.550Z,19.60
2019-01-12T05:05:19.049Z,17.00
2019-01-12T05:07:48.293Z,18.53
2019-01-12T05:10:16.817Z,16.50
2019-01-12T05:12:45.232Z,19.07
2019-01-12T05:15:14.681Z,18.20
2019-01-12T05:17:43.193Z,15.60
2019-01-12T05:20:14.745Z,16.03
2019-01-12T05:22:43.231Z,17.13
2019-01-12T05:25:11.667Z,16.83
2019-01-12T05:27:40.101Z,16.00
2019-01-12T05:30:18.759Z,17.13
2019-01-12T05:32:47.167Z,18.97
2019-01-12T05:35:15.567Z,18.00
2019-01-12T05:37:44.068Z,16.90
2019-01-12T05:40:12.921Z,17.37
2019-01-12T05:42:41.413Z,16.90
2019-01-12T05:45:12.027Z,16.77
2019-01-12T05:47:40.711Z,17.80
2019-01-12T05:50:12.099Z,16.60
2019-01-12T05:52:40.625Z,16.10
2019-01-12T05:55:09.495Z,17.63
2019-01-12T05:57:37.984Z,16.70
2019-01-12T06:00:09.482Z,17.33
2019-01-12T06:02:37.904Z,18.87
2019-01-12T06:05:06.542Z,17.37
2019-01-12T06:07:35.040Z,17.43
2019-01-12T06:10:05.095Z,16.33
2019-01-12T06:12:33.509Z,16.30
2019-01-12T06:15:01.942Z,15.97
2019-01-12T06:17:30.390Z,14.90
2019-01-12T06:19:58.825Z,29.30
2019-01-12T06:22:28.912Z,15.90
2019-01-12T06:24:57.389Z,14.40
2019-01-12T06:27:26.758Z,15.27
2019-01-12T06:29:55.174Z,14.30
2019-01-12T06:32:23.670Z,15.30
2019-01-12T06:34:52.209Z,13.80
2019-01-12T06:37:20.636Z,15.73
2019-01-12T06:39:49.048Z,14.57
2019-01-12T06:42:17.652Z,14.37
2019-01-12T06:44:46.143Z,16.20
2019-01-12T06:47:14.576Z,16.57
2019-01-12T06:49:43.092Z,15.43
2019-01-12T06:52:11.504Z,14.40
2019-01-12T06:54:39.936Z,13.37
2019-01-12T06:57:08.396Z,12.57
2019-01-12T06:59:36.806Z,14.20
2019-01-12T07:02:05.386Z,12.93
2019-01-12T07:04:33.796Z,12.80
2019-01-12T07:07:02.238Z,12.57
2019-01-12T07:09:30.655Z,13.43
2019-01-12T07:11:59.076Z,13.70
2019-01-12T07:14:27.524Z,13.07
2019-01-12T07:16:57.225Z,24.67
2019-01-12T07:19:25.665Z,17.93
2019-01-12T07:21:54.111Z,12.50
2019-01-12T07:24:22.527Z,12.43
2019-01-12T07:26:51.259Z,12.50
2019-01-12T07:29:19.760Z,12.83
2019-01-12T07:31:48.192Z,13.70
2019-01-12T07:34:16.611Z,14.07
2019-01-12T07:36:45.060Z,15.00
2019-01-12T07:39:13.474Z,14.70
2019-01-12T07:41:41.959Z,14.87
2019-01-12T07:44:10.495Z,29.90
2019-01-12T07:46:39.002Z,16.47
2019-01-12T07:49:07.445Z,18.43
2019-01-12T07:51:35.860Z,18.50
2019-01-12T07:54:04.367Z,19.20
2019-01-12T07:56:32.830Z,18.87
2019-01-12T07:59:01.252Z,19.10
2019-01-12T08:01:29.663Z,29.03
2019-01-12T08:03:58.211Z,20.47
2019-01-12T08:06:27.034Z,20.20
2019-01-12T08:08:55.466Z,21.70
2019-01-12T08:11:24.541Z,20.80
2019-01-12T08:13:52.956Z,23.63
2019-01-12T08:16:21.442Z,22.50
2019-01-12T08:18:49.861Z,22.33
2019-01-12T08:21:18.373Z,23.10
2019-01-12T08:23:46.799Z,25.60
2019-01-12T08:26:15.297Z,25.27
2019-01-12T08:28:43.717Z,25.47
2019-01-12T08:31:12.239Z,25.27
2019-01-12T08:33:40.673Z,23.50
2019-01-12T08:36:09.427Z,25.23
2019-01-12T08:38:37.978Z,24.50
2019-01-12T08:41:06.537Z,36.67
2019-01-12T08:43:35.061Z,25.10
2019-01-12T08:46:03.747Z,23.97
2019-01-12T08:48:32.195Z,23.60
2019-01-12T08:51:00.646Z,24.77
2019-01-12T08:53:29.208Z,23.07
2019-01-12T08:55:57.739Z,23.47
2019-01-12T08:58:26.145Z,22.47
2019-01-12T09:00:54.609Z,22.47
2019-01-12T09:03:23.047Z,24.73
2019-01-12T09:05:51.501Z,21.03
2019-01-12T09:08:20.037Z,20.33
2019-01-12T09:10:48.642Z,19.90
2019-01-12T09:13:17.169Z,17.90
2019-01-12T09:15:45.575Z,23.00
2019-01-12T09:18:14.116Z,18.90
2019-01-12T09:20:42.615Z,19.73
2019-01-12T09:23:11.069Z,19.37
2019-01-12T09:25:39.638Z,17.93
2019-01-12T09:28:08.530Z,19.67
2019-01-12T09:30:36.981Z,19.93
2019-01-12T09:33:05.575Z,19.63
2019-01-12T09:35:34.009Z,17.47
2019-01-12T09:38:02.466Z,18.33
2019-01-12T09:40:30.947Z,19.50
2019-01-12T09:42:59.505Z,18.40
2019-01-12T09:45:27.960Z,15.30
2019-01-12T09:47:57.396Z,14.90
2019-01-12T09:50:25.817Z,14.17
2019-01-12T09:52:54.295Z,16.43
2019-01-12T09:55:22.756Z,15.83
2019-01-12T09:57:51.261Z,14.97
2019-01-12T10:00:23.321Z,17.33
2019-01-12T10:02:51.871Z,15.83
2019-01-12T10:05:20.381Z,30.63
2019-01-12T10:07:48.806Z,17.97
2019-01-12T10:10:19.905Z,14.77
2019-01-12T10:12:48.536Z,36.43
2019-01-12T10:15:17.173Z,19.67
2019-01-12T10:17:46.637Z,15.50
2019-01-12T10:20:17.113Z,13.10
2019-01-12T10:22:45.799Z,11.70
2019-01-12T10:25:14.969Z,12.33
2019-01-12T10:27:43.605Z,12.40
2019-01-12T10:30:20.511Z,11.33
2019-01-12T10:32:49.103Z,18.80
2019-01-12T10:35:17.828Z,12.97
2019-01-12T10:37:46.443Z,11.40
2019-01-12T10:40:17.250Z,12.83
2019-01-12T10:42:45.932Z,11.03
2019-01-12T10:45:16.749Z,10.63
2019-01-12T10:47:46.017Z,12.00
2019-01-12T10:50:17.589Z,11.30
2019-01-12T10:52:50.211Z,11.60
2019-01-12T10:55:18.750Z,11.33
2019-01-12T10:57:47.218Z,11.83
2019-01-12T11:00:24.358Z,12.50
2019-01-12T11:02:53.601Z,13.40
2019-01-12T11:05:22.296Z,13.63
2019-01-12T11:07:50.809Z,13.07
2019-01-12T11:10:19.388Z,13.70
2019-01-12T11:12:47.849Z,20.57
2019-01-12T11:15:18.735Z,14.40
2019-01-12T11:17:47.415Z,15.80
2019-01-12T11:20:16.156Z,16.10
2019-01-12T11:22:44.808Z,16.97
2019-01-12T11:25:14.456Z,16.77
2019-01-12T11:27:43.012Z,15.27
2019-01-12T11:30:14.346Z,17.03
2019-01-12T11:32:42.820Z,16.83
2019-01-12T11:35:11.784Z,15.20
2019-01-12T11:37:40.244Z,16.90
2019-01-12T11:40:17.472Z,16.73
2019-01-12T11:42:48.888Z,14.30
2019-01-12T11:45:19.207Z,14.60
2019-01-12T11:47:47.786Z,15.40
2019-01-12T11:50:17.057Z,14.07
2019-01-12T11:52:46.028Z,13.37
2019-01-12T11:55:16.232Z,14.00
2019-01-12T11:57:45.024Z,14.10
2019-01-12T12:00:16.683Z,13.67
2019-01-12T12:02:45.297Z,14.27
2019-01-12T12:05:13.934Z,13.47
2019-01-12T12:07:42.346Z,16.07
2019-01-12T12:10:12.853Z,14.47
2019-01-12T12:12:41.340Z,14.40
2019-01-12T12:15:12.834Z,14.13
2019-01-12T12:17:41.362Z,18.93
2019-01-12T12:20:15.378Z,15.70
2019-01-12T12:22:43.882Z,14.07
2019-01-12T12:25:12.435Z,13.97
2019-01-12T12:27:41.000Z,15.60
2019-01-12T12:30:12.538Z,14.33
2019-01-12T12:32:41.065Z,14.63
2019-01-12T12:35:09.616Z,15.73
2019-01-12T12:37:38.308Z,14.60
2019-01-12T12:40:10.108Z,19.30
2019-01-12T12:42:38.554Z,13.37
2019-01-12T12:45:10.390Z,14.20
2019-01-12T12:47:38.808Z,13.33
2019-01-12T12:50:10.426Z,13.87
2019-01-12T12:52:39.024Z,17.87
2019-01-12T12:55:08.373Z,13.70
2019-01-12T12:57:36.921Z,12.67
2019-01-12T13:00:11.109Z,11.70
2019-01-12T13:02:39.540Z,11.57
2019-01-12T13:05:09.371Z,11.70
2019-01-12T13:07:38.175Z,10.20
2019-01-12T13:10:15.264Z,11.30
2019-01-12T13:12:43.785Z,12.00
2019-01-12T13:15:12.271Z,10.30
2019-01-12T13:17:40.833Z,9.97
2019-01-12T13:20:12.881Z,9.97
2019-01-12T13:22:41.309Z,10.47
2019-01-12T13:25:12.822Z,9.50
2019-01-12T13:27:47.363Z,8.20
2019-01-12T13:30:23.376Z,8.67
2019-01-12T13:32:55.972Z,8.10
2019-01-12T13:35:30.736Z,9.35
2019-01-12T13:38:03.716Z,7.63
2019-01-12T13:40:33.931Z,8.73
2019-01-12T13:43:03.319Z,8.67
2019-01-12T13:45:31.957Z,6.83
2019-01-12T13:48:00.626Z,7.83
2019-01-12T13:50:29.417Z,13.43
2019-01-12T13:52:58.168Z,8.60
2019-01-12T13:55:26.826Z,8.87
2019-01-12T13:57:55.343Z,8.67
2019-01-12T14:00:26.868Z,8.37
2019-01-12T14:02:55.430Z,10.10
2019-01-12T14:05:23.926Z,9.30
2019-01-12T14:07:56.438Z,9.47
2019-01-12T14:10:23.602Z,9.70
2019-01-12T14:12:52.043Z,8.77
2019-01-12T14:15:20.898Z,17.43
2019-01-12T14:17:49.321Z,9.30
2019-01-12T14:20:23.560Z,8.87
2019-01-12T14:22:51.984Z,18.60
2019-01-12T14:25:20.412Z,12.10
2019-01-12T14:27:54.312Z,10.33
2019-01-12T14:30:19.992Z,9.57
2019-01-12T14:32:48.469Z,8.43
2019-01-12T14:35:18.465Z,8.57
2019-01-12T14:37:48.671Z,8.43
2019-01-12T14:40:19.467Z,7.87
2019-01-12T14:42:48.085Z,8.50
2019-01-12T14:45:19.400Z,8.70
2019-01-12T14:47:47.968Z,8.67
2019-01-12T14:50:16.426Z,7.60
2019-01-12T14:52:45.081Z,8.00
2019-01-12T14:55:16.072Z,8.37
2019-01-12T14:57:44.573Z,7.10
2019-01-12T15:00:17.978Z,7.30
2019-01-12T15:02:46.483Z,7.60
2019-01-12T15:05:17.585Z,11.00
2019-01-12T15:07:46.230Z,15.93
2019-01-12T15:10:20.650Z,9.07
2019-01-12T15:12:50.180Z,6.90
2019-01-12T15:15:19.531Z,7.40
2019-01-12T15:17:48.205Z,7.43
2019-01-12T15:20:24.308Z,7.60
2019-01-12T15:22:52.737Z,7.60
2019-01-12T15:25:21.595Z,7.20
2019-01-12T15:27:50.107Z,7.70
2019-01-12T15:30:20.897Z,7.50
2019-01-12T15:32:49.377Z,13.60
2019-01-12T15:35:18.530Z,6.07
2019-01-12T15:37:47.139Z,6.77
2019-01-12T15:40:17.501Z,5.87
2019-01-12T15:42:46.089Z,7.23
2019-01-12T15:45:17.037Z,6.93
2019-01-12T15:47:45.535Z,7.13
2019-01-12T15:50:16.410Z,7.30
2019-01-12T15:52:44.953Z,7.50
2019-01-12T15:55:13.537Z,19.07
2019-01-12T15:57:42.201Z,6.37
2019-01-12T16:00:21.895Z,6.33
2019-01-12T16:02:50.291Z,7.23
2019-01-12T16:05:18.731Z,5.50
2019-01-12T16:07:47.666Z,6.50
2019-01-12T16:10:16.453Z,6.93
2019-01-12T16:12:44.925Z,7.20
2019-01-12T16:15:19.053Z,8.57
2019-01-12T16:17:48.238Z,7.57
2019-01-12T16:20:22.067Z,14.60
2019-01-12T16:22:50.486Z,13.33
2019-01-12T16:25:18.917Z,10.43
2019-01-12T16:27:47.486Z,11.20
2019-01-12T16:30:18.541Z,10.63
2019-01-12T16:32:47.022Z,10.47
2019-01-12T16:35:15.723Z,11.07
2019-01-12T16:37:44.405Z,10.97
2019-01-12T16:40:18.148Z,11.30
2019-01-12T16:42:46.609Z,12.00
2019-01-12T16:45:16.064Z,13.07
2019-01-12T16:47:44.475Z,11.70
2019-01-12T16:50:12.942Z,11.77
2019-01-12T16:52:41.421Z,12.33
2019-01-12T16:55:12.229Z,12.90
2019-01-12T16:57:40.640Z,10.60
2019-01-12T17:00:12.331Z,11.67
2019-01-12T17:02:40.929Z,11.90
2019-01-12T17:05:09.593Z,15.90
2019-01-12T17:07:38.087Z,11.00
2019-01-12T17:10:12.151Z,9.97
2019-01-12T17:12:40.643Z,10.40
2019-01-12T17:15:11.698Z,10.67
2019-01-12T17:17:40.172Z,9.90
2019-01-12T17:20:14.492Z,18.30
2019-01-12T17:22:43.219Z,8.50
2019-01-12T17:25:11.773Z,8.77
2019-01-12T17:27:40.205Z,9.67
2019-01-12T17:30:14.784Z,8.03
2019-01-12T17:32:43.286Z,8.93
2019-01-12T17:35:12.872Z,9.57
2019-01-12T17:37:41.353Z,10.80
2019-01-12T17:40:12.240Z,11.50
2019-01-12T17:42:40.708Z,11.50
2019-01-12T17:45:14.980Z,11.63
2019-01-12T17:47:43.505Z,11.70
2019-01-12T17:50:14.568Z,11.37
2019-01-12T17:52:43.482Z,11.83
2019-01-12T17:55:14.745Z,10.80
2019-01-12T17:57:43.270Z,11.60
2019-01-12T18:00:19.191Z,10.90
2019-01-12T18:02:48.246Z,13.37
2019-01-12T18:05:16.692Z,11.10
2019-01-12T18:07:51.058Z,11.23
2019-01-12T18:10:19.668Z,12.43
2019-01-12T18:12:48.172Z,13.60
2019-01-12T18:15:16.768Z,14.37
2019-01-12T18:17:46.824Z,10.72
2019-01-12T18:20:18.430Z,10.73
2019-01-12T18:22:46.914Z,12.03
2019-01-12T18:25:16.857Z,10.73
2019-01-12T18:27:45.619Z,10.20
2019-01-12T18:30:26.436Z,10.03
2019-01-12T18:32:54.936Z,8.83
2019-01-12T18:35:23.508Z,9.27
2019-01-12T18:37:51.944Z,8.10
2019-01-12T18:40:21.396Z,6.60
2019-01-12T18:42:49.892Z,7.40
2019-01-12T18:45:19.881Z,6.50
2019-01-12T18:47:48.466Z,6.10
2019-01-12T18:50:19.206Z,7.00
2019-01-12T18:52:47.717Z,7.17
2019-01-12T18:55:16.426Z,8.37
2019-01-12T18:57:45.502Z,8.73
2019-01-12T19:00:18.623Z,8.63
2019-01-12T19:02:47.352Z,11.67
2019-01-12T19:05:16.031Z,11.23
2019-01-12T19:07:44.520Z,13.97
2019-01-12T19:10:13.959Z,18.40
2019-01-12T19:12:42.654Z,14.50
2019-01-12T19:15:19.633Z,13.60
2019-01-12T19:17:48.261Z,14.80
2019-01-12T19:20:16.799Z,14.17
2019-01-12T19:22:45.370Z,15.10
2019-01-12T19:25:14.616Z,15.00
2019-01-12T19:27:43.113Z,16.30
2019-01-12T19:30:22.026Z,15.10
2019-01-12T19:32:53.702Z,19.13
2019-01-12T19:35:22.756Z,16.67
2019-01-12T19:38:09.365Z,26.40
2019-01-12T19:40:37.857Z,18.83
2019-01-12T19:43:06.289Z,18.47
2019-01-12T19:45:34.997Z,18.43
2019-01-12T19:48:03.928Z,17.53
2019-01-12T19:50:32.589Z,17.13
2019-01-12T19:53:01.182Z,18.70
2019-01-12T19:55:32.694Z,16.13
2019-01-12T19:58:01.342Z,16.07
2019-01-12T20:00:30.074Z,16.20
2019-01-12T20:02:58.719Z,22.63
2019-01-12T20:05:27.210Z,16.37
2019-01-12T20:08:06.016Z,17.93
2019-01-12T20:10:34.457Z,17.67
2019-01-12T20:13:03.003Z,17.37
2019-01-12T20:15:34.334Z,20.07
2019-01-12T20:18:03.323Z,19.40
2019-01-12T20:20:31.755Z,19.40
2019-01-12T20:23:00.182Z,19.17
2019-01-12T20:25:29.025Z,18.13
2019-01-12T20:27:57.580Z,18.03
2019-01-12T20:30:31.933Z,19.70
2019-01-12T20:33:24.409Z,19.37
2019-01-12T20:36:18.308Z,19.10
2019-01-12T20:39:04.679Z,17.37
2019-01-12T20:41:44.411Z,14.40
2019-01-12T20:44:24.569Z,17.50
2019-01-12T20:47:13.949Z,12.70
2019-01-12T20:49:45.467Z,11.67
2019-01-12T20:52:29.255Z,13.13
2019-01-12T20:55:01.697Z,14.43
2019-01-12T20:57:53.957Z,12.03
2019-01-12T21:00:49.578Z,13.23
2019-01-12T21:03:26.896Z,13.33
2019-01-12T21:06:04.232Z,14.43
2019-01-12T21:08:38.452Z,15.33
2019-01-12T21:11:21.692Z,15.40
2019-01-12T21:14:05.284Z,16.30
2019-01-12T21:16:34.761Z,17.07
2019-01-12T21:19:03.218Z,12.70
2019-01-12T21:21:31.688Z,10.83
2019-01-12T21:24:00.175Z,9.00
2019-01-12T21:26:28.904Z,11.07
2019-01-12T21:28:57.375Z,9.87
2019-01-12T21:31:25.780Z,9.93
2019-01-12T21:33:54.319Z,10.57
2019-01-12T21:36:22.836Z,20.37
2019-01-12T21:38:57.385Z,14.73
2019-01-12T21:41:25.926Z,54.73
2019-01-12T21:43:54.551Z,13.40
2019-01-12T21:46:23.257Z,13.03
2019-01-12T21:48:53.078Z,25.90
2019-01-12T21:51:21.532Z,15.70
2019-01-12T21:53:49.964Z,13.60
2019-01-12T21:56:18.493Z,15.00
2019-01-12T21:58:47.240Z,16.73
2019-01-12T22:01:17.638Z,18.40
2019-01-12T22:03:46.158Z,16.70
2019-01-12T22:06:14.880Z,18.53
2019-01-12T22:08:44.120Z,18.03
2019-01-12T22:11:12.759Z,20.93
2019-01-12T22:13:41.208Z,19.80
2019-01-12T22:16:09.803Z,18.97
2019-01-12T22:18:38.523Z,18.77
2019-01-12T22:21:06.980Z,18.63
2019-01-12T22:23:35.423Z,18.83
2019-01-12T22:26:03.872Z,21.20
2019-01-12T22:28:32.364Z,19.47
2019-01-12T22:31:00.820Z,20.30
2019-01-12T22:33:29.934Z,23.27
2019-01-12T22:35:58.464Z,22.17
2019-01-12T22:38:26.966Z,25.07
2019-01-12T22:40:55.468Z,27.77
2019-01-12T22:43:27.004Z,27.50
2019-01-12T22:45:55.458Z,24.97
2019-01-12T22:48:24.105Z,22.93
2019-01-12T22:50:52.691Z,24.47
2019-01-12T22:53:21.208Z,25.50
2019-01-12T22:55:49.658Z,26.77
2019-01-12T22:58:18.083Z,24.00
2019-01-12T23:00:52.536Z,24.43
2019-01-12T23:03:20.973Z,24.23
2019-01-12T23:05:49.472Z,22.07
2019-01-12T23:08:17.990Z,24.43
2019-01-12T23:10:46.480Z,28.30
2019-01-12T23:13:15.495Z,22.67
2019-01-12T23:15:43.943Z,24.60
2019-01-12T23:18:12.539Z,24.27
2019-01-12T23:20:41.103Z,24.67
2019-01-12T23:23:09.528Z,25.17
2019-01-12T23:25:37.963Z,24.63
2019-01-12T23:28:06.547Z,24.23
2019-01-12T23:30:34.989Z,23.93
2019-01-12T23:33:03.430Z,25.40
2019-01-12T23:35:31.870Z,23.70
2019-01-12T23:38:00.354Z,23.60
2019-01-12T23:40:28.803Z,29.37
2019-01-12T23:42:57.380Z,25.77
2019-01-12T23:45:25.789Z,25.37
2019-01-12T23:47:54.248Z,29.53
2019-01-12T23:50:22.652Z,27.10
2019-01-12T23:52:51.116Z,23.20
2019-01-12T23:55:19.553Z,24.10
2019-01-12T23:57:47.974Z,24.47
